WetterOnline ( https://www.wetteronline.de )

Wetter aktuell Leipzig

Aktuelles Wetter: Leipzig/Halle (136m)

6-stündlich | Neueste Meldungen
Ortszeit Temperatur Wetter
So, 16.06. 2:00 15.8° C leicht bewölkt
Sa, 15.06. 20:00 25.0° C wolkig
Sa, 15.06. 14:00 28.1° C leicht bewölkt
Sa, 15.06. 8:00 22.2° C wolkig
Sa, 15.06. 2:00 22.1° C wolkig
Fr, 14.06. 20:00 25.4° C wolkig
Fr, 14.06. 14:00 28.1° C leicht bewölkt
Fr, 14.06. 8:00 19.5° C wolkenlos
Ortszeit Temperatur Wetter
So, 16.06. 7:00 15.2° C wolkig
So, 16.06. 6:50 15.2° C wolkig
So, 16.06. 6:40 15.0° C wolkig
So, 16.06. 6:30 14.4° C wolkig
So, 16.06. 6:20 14.4° C wolkig
So, 16.06. 6:10 14.3° C bewölkt
So, 16.06. 6:00 14.1° C wolkig
So, 16.06. 5:30 13.6° C leicht bewölkt
So, 16.06. 5:00 13.4° C leicht bewölkt
So, 16.06. 4:30 13.6° C wolkenlos
So, 16.06. 4:00 13.0° C leicht bewölkt
Ortszeit Relative Feuchte Sichtweite
So, 16.06. 2:00 83% 60 km
Sa, 15.06. 20:00 49% 70 km
Sa, 15.06. 14:00 43% 45 km
Sa, 15.06. 8:00 78% 25 km
Sa, 15.06. 2:00 63% 45 km
Fr, 14.06. 20:00 52% 50 km
Fr, 14.06. 14:00 32% 60 km
Fr, 14.06. 8:00 67% 55 km
Ortszeit Relative Feuchte Sichtweite
So, 16.06. 7:00 84% 45 km
So, 16.06. 6:50 84% -
So, 16.06. 6:40 85% -
So, 16.06. 6:30 88% 45 km
So, 16.06. 6:20 88% -
So, 16.06. 6:10 89% -
So, 16.06. 6:00 87% 45 km
So, 16.06. 5:30 89% 45 km
So, 16.06. 5:00 91% 50 km
So, 16.06. 4:30 90% 35 km
So, 16.06. 4:00 92% 50 km
Ortszeit Niederschlagsmenge Niederschlagsart
So, 16.06. 2:00 0.0 l/m2 in 6 Std. -
Sa, 15.06. 20:00 0.0 l/m2 in 12 Std. -
Sa, 15.06. 14:00 0.0 l/m2 in 6 Std. -
Sa, 15.06. 8:00 0.1 l/m2 in 12 Std. Schauer
Sa, 15.06. 2:00 0.0 l/m2 in 6 Std. -
Fr, 14.06. 20:00 0.0 l/m2 in 12 Std. -
Fr, 14.06. 14:00 0.0 l/m2 in 6 Std. -
Fr, 14.06. 8:00 0.0 l/m2 in 12 Std. -
Ortszeit Niederschlagsmenge Niederschlagsart
So, 16.06. 7:00 0.0 l/m2 in 1 Std. -
So, 16.06. 6:50 keine Meldung -
So, 16.06. 6:40 keine Meldung -
So, 16.06. 6:30 0.0 l/m2 in 1 Std. -
So, 16.06. 6:20 keine Meldung -
So, 16.06. 6:10 keine Meldung -
So, 16.06. 6:00 0.0 l/m2 in 1 Std. -
So, 16.06. 5:30 0.0 l/m2 in 1 Std. -
So, 16.06. 5:00 0.0 l/m2 in 1 Std. -
So, 16.06. 4:30 0.0 l/m2 in 1 Std. -
So, 16.06. 4:00 0.0 l/m2 in 1 Std. -
Ortszeit Stärke Spitze Richtung
km/h Bft. km/h Grad Sektor
So, 16.06. 2:00 4 1 36 300° NW
Sa, 15.06. 20:00 22 4 59 270° W
Sa, 15.06. 14:00 37 5 57 260° W
Sa, 15.06. 8:00 20 4 48 100° O
Sa, 15.06. 2:00 17 3 26 70° O
Fr, 14.06. 20:00 11 2 33 90° O
Fr, 14.06. 14:00 20 4 37 140° SO
Fr, 14.06. 8:00 11 2 18 130° SO
Ortszeit Stärke Spitze Richtung
km/h Bft. km/h Grad Sektor
So, 16.06. 7:00 7 2 14 330° NW
So, 16.06. 6:50 7 2 - 330° NW
So, 16.06. 6:40 7 2 - 340° N
So, 16.06. 6:30 6 1 7 310° NW
So, 16.06. 6:20 6 1 - 310° NW
So, 16.06. 6:10 4 1 - 300° NW
So, 16.06. 6:00 4 1 11 310° NW
So, 16.06. 5:30 2 1 9 290° W
So, 16.06. 5:00 7 2 14 290° W
So, 16.06. 4:30 7 2 11 290° W
So, 16.06. 4:00 6 1 7 280° W
Ortszeit Untergrenze Bedeckung Gattung
total tief tief mittel hoch
So, 16.06. 2:00 9000 m 5/8 0/8 - - Ci
Sa, 15.06. 20:00 1500 m 6/8 2/8 Cu Ac Ci
Sa, 15.06. 14:00 1500 m 3/8 1/8 Cu Ac -
Sa, 15.06. 8:00 3600 m 7/8 7/8 - As -
Sa, 15.06. 2:00 2100 m 8/8 1/8 Cu As -
Fr, 14.06. 20:00 3900 m 8/8 6/8 - As Cs
Fr, 14.06. 14:00 1800 m 6/8 1/8 Cu Ac Ci
Fr, 14.06. 8:00 - 0/8 0/8 - - -
Ortszeit Bedeckungsgrad in Achtel und Wolkenuntergrenze
So, 16.06. 7:00 1(3900m) 3(4800m) 6(9000m)
So, 16.06. 6:50 2(6000m) 8(9000m)
So, 16.06. 6:40 2(5700m) 8(9000m)
So, 16.06. 6:30 2(6300m) 3(7200m) 8(9000m)
So, 16.06. 6:20 2(6300m) 3(7200m) 8(9000m)
So, 16.06. 6:10 1(5100m) 7(6900m) 8(9000m)
So, 16.06. 6:00 3(3900m) 4(7500m) 8(7200m)
So, 16.06. 5:30 2(7200m) 3(9000m)
So, 16.06. 5:00 2(3600m) 3(9000m) 4(10500m)
So, 16.06. 4:30 keine Wolken
So, 16.06. 4:00 1(3000m) 4(9000m)
Ortszeit Luftdruck NN (hPa) Tendenz (hPa in 3 Std.)
So, 16.06. 2:00 1017 + 1,8
Sa, 15.06. 20:00 1013 + 0,8
Sa, 15.06. 14:00 1010 + 1,8
Sa, 15.06. 8:00 1008 - 0,6
Sa, 15.06. 2:00 1012 - 2,1
Fr, 14.06. 20:00 1014 - 1,2
Fr, 14.06. 14:00 1017 - 0,7
Fr, 14.06. 8:00 1018 + 0,8
Ortszeit Luftdruck NN (hPa) Tendenz (hPa in 3 Std.)
So, 16.06. 7:00 1018 + 0,7
So, 16.06. 6:50 1018 keine Meldung
So, 16.06. 6:40 1018 keine Meldung
So, 16.06. 6:30 1018 + 0,7
So, 16.06. 6:20 1018 keine Meldung
So, 16.06. 6:10 1018 keine Meldung
So, 16.06. 6:00 1018 + 0,6
So, 16.06. 5:30 1018 + 0,6
So, 16.06. 5:00 1018 + 0,4
So, 16.06. 4:30 1018 + 0,8
So, 16.06. 4:00 1018 + 0,8
Ortszeit Schneehöhe (cm)
So, 16.06. 2:00 0
Sa, 15.06. 20:00 0
Sa, 15.06. 14:00 0
Sa, 15.06. 8:00 0
Sa, 15.06. 2:00 0
Fr, 14.06. 20:00 0
Fr, 14.06. 14:00 0
Fr, 14.06. 8:00 0
Ortszeit Schneehöhe (cm)
So, 16.06. 7:00 -
So, 16.06. 6:50 -
So, 16.06. 6:40 -
So, 16.06. 6:30 -
So, 16.06. 6:20 -
So, 16.06. 6:10 -
So, 16.06. 6:00 -
So, 16.06. 5:30 -
So, 16.06. 5:00 -
So, 16.06. 4:30 -
So, 16.06. 4:00 -
Link zu dieser Seite / Seite empfehlen

Das Wetter in ...